Raleigh, NC (27601)

10:41 AM EDT on August 29, 2015 (GMT -0400)
Raleigh Downtown | | Change Station
CLOSE
Current Station
Personal Weather Station
Location: Raleigh, NC
Elevation: 351 ft
Nearby Weather Stations

Elev 351 ft 35.78 °N, 78.64 °W | Updated 10 seconds ago

Partly Cloudy
Partly Cloudy
75.9 °F
Feels Like 78 °F
N
4.7
Wind Variable Wind from NE
Gusts 5.0 mph

Today
High -- | Low -- °F
--% Chance of Precip.
Yesterday
High -- | Low -- °F
Precip. -- in
6:44 AM 7:46 PM
Full, 100% visible
Pressure 30.23 in
Visibility 10.0 miles
Clouds Few 7000 ft
Mostly Cloudy 25000 ft
Heat Index 78 °F
Dew Point 61 °F
Humidity 61%
Rainfall 0.00 in
Snow Depth Not available.
UV 2 out of 12
Pollen 7.80 out of 12
Air Quality Not available.
Flu Activity Not available.
METAR KRDU 291351Z 09004KT 10SM FEW070 BKN250 24/16 A3024 RMK AO2 SLP237 T02440161
Pressure 30.23 in
Visibility 10.0 miles
Clouds Few 7000 ft
Mostly Cloudy 25000 ft
Heat Index 78 °F
Dew Point 61 °F
Humidity 61%
Rainfall 0.00 in
Snow Depth Not available.
UV 2 out of 12
Pollen 7.80 out of 12
Air Quality Not available.
Flu Activity Not available.
METAR KRDU 291351Z 09004KT 10SM FEW070 BKN250 24/16 A3024 RMK AO2 SLP237 T02440161

10-Day Weather Forecast

×

Almanac

Astronomy

Aug. 29, 2015 Rise Set
Actual Time
Civil Twilight
Nautical Twilight
Astronomical Twilight
Moon
Length of Visible Light
Length of Day
Tomorrow will be .
, % of the Moon is Illuminated

Today's Extremes

State Highs State Lows

Community

WunderPhotos

Upload Photos

1,850,707 photos uploaded!

WunderBlogs® & News

Nearby

Air Quality

  Air Quality AQ Index Pollutant
Not available.

Snow Depth

Station Depth Elevation

Earthquake Activity

City Distance Mag. Time & Date
Minimum magnitude displayed is 2.5.

Coastal Water Temperatures

Place Temperature

Stations

Nearby Weather Stations

Station Location Temp. Windchill Dew Point Humidity Wind Precip. Elev Updated Type